• Join FlightAware (Why Join?)
  • Login
  • US Flag 
11:27AM EST


 

Airport Tracker/Info


-or-


 

Live Flight TrackerFlight Track Log ✈ N918FA ✈ 26-Jul-2013 ✈ KMDW - KDET

Flight Track Log - Related Links

Times and Time Zones

All times are in EDT time to prevent confusion due to time zone crossing. See the N918FA flight status page for this flight to view local times or setup timezone preferences in your user account.

Time Position Orientation Groundspeed Altitude Reporting Facility
EDT Latitude Longitude Course Direction KTS MPH feet Rate Location/Type
06:49PM 41.7833 -87.7833 360° North 77 89 1,300  Level Chicago TRACON
06:50PM 41.8000 -87.7833 360° North 98 113 1,800 360 Climbing Chicago TRACON
06:51PM 41.8108 -87.7544 63° Northeast 97 112 2,000 300 Climbing Chicago Center
06:52PM 41.8058 -87.7233 102° East 90 104 2,400 300 Climbing Chicago Center
06:53PM 41.8078 -87.6875 86° East 92 106 2,700 360 Climbing Chicago Center
06:54PM 41.8103 -87.6419 86° East 98 113 3,200 420 Climbing Chicago Center
06:55PM 41.8122 -87.6047 86° East 100 115 3,600 360 Climbing Chicago Center
06:56PM 41.8019 -87.5703 112° Southeast 103 119 4,000 300 Climbing Chicago Center
06:57PM 41.7897 -87.5392 118° Southeast 98 113 4,300 300 Climbing Chicago Center
06:58PM 41.7756 -87.5075 121° Southeast 97 112 4,700 300 Climbing Chicago Center
06:59PM 41.7603 -87.4761 123° Southeast 100 115 5,000 60 Climbing Chicago Center
07:00PM 41.7386 -87.4281 121° Southeast 123 142 4,900 -60 Descending Chicago Center
07:01PM 41.7222 -87.3844 117° Southeast 129 148 4,900  Level Chicago Center
07:02PM 41.7192 -87.3347 95° East 133 153 4,900  Level Chicago Center
07:03PM 41.7167 -87.2858 94° East 132 152 4,900  Level Chicago Center
07:04PM 41.7125 -87.2364 96° East 133 153 4,900  Level Chicago Center
07:05PM 41.7100 -87.1775 93° East 133 153 4,900  Level Chicago Center
07:06PM 41.7069 -87.1303 95° East 130 150 4,900  Level Chicago Center
07:07PM 41.7047 -87.0811 93° East 131 151 4,900  Level Chicago Center
07:08PM 41.7039 -87.0314 91° East 132 152 4,900  Level Chicago Center
07:09PM 41.7228 -86.9892 59° Northeast 131 151 4,900  Level Chicago Center
07:10PM 41.7417 -86.9339 50° Northeast 136 157 4,900  Level Chicago Center
07:11PM 41.7471 -86.9499 50° Northeast  Level FlightAware Approximate
07:11PM 41.7572 -86.8881 66° East 136 157 4,900  Level Chicago Center
07:12PM 41.7728 -86.8428 65° Northeast 136 157 4,900  Level Chicago Center
07:14PM 41.8024 -86.8200 30° Northeast  Level FlightAware Approximate
07:15PM 41.8022 -86.7475 30° Northeast 138 159 4,900  Level Chicago Center
07:16PM 41.8186 -86.6964 67° East 139 160 4,900  Level Chicago Center
07:17PM 41.8347 -86.6486 66° East 140 161 4,900  Level Chicago Center
07:18PM 41.8503 -86.6008 66° East 141 162 4,900  Level Chicago Center
07:19PM 41.8689 -86.5431 67° East 141 162 4,900  Level Chicago Center
07:20PM 41.8839 -86.4939 68° East 142 163 4,900  Level Chicago Center
07:21PM 41.9006 -86.4456 65° Northeast 142 163 4,900  Level Chicago Center
07:22PM 41.9147 -86.3972 68° East 141 162 4,900  Level Chicago Center
07:23PM 41.9297 -86.3503 67° East 138 159 4,900  Level Chicago Center
07:24PM 41.9456 -86.3031 66° East 138 159 4,900  Level Chicago Center
07:25PM 41.9644 -86.2447 66° East 141 162 4,900  Level Chicago Center
07:26PM 41.9781 -86.1986 68° East 136 157 4,900  Level Chicago Center
07:27PM 41.9931 -86.1533 66° East 134 154 4,900  Level Chicago Center
07:28PM 42.0078 -86.1064 67° East 135 155 4,900  Level Chicago Center
07:29PM 42.0231 -86.0592 66° East 137 158 4,900  Level Chicago Center
07:30PM 42.0378 -86.0131 67° East 135 155 4,900  Level Chicago Center
07:31PM 42.0553 -85.9558 68° East 137 158 4,900  Level Chicago Center
07:32PM 42.0706 -85.9106 66° East 135 155 4,900  Level Chicago Center
07:33PM 42.0844 -85.8656 67° East 132 152 4,900  Level Chicago Center
07:34PM 42.1003 -85.8128 68° East 134 154 4,900  Level Chicago Center
07:35PM 42.1142 -85.7714 66° East 137 158 4,900  Level Chicago Center
07:36PM 42.1292 -85.7236 67° East 138 159 4,900  Level Chicago Center
07:37PM 42.1472 -85.6650 67° East 140 161 4,900  Level Chicago Center
07:38PM 42.1622 -85.6161 68° East 141 162 4,900  Level Chicago Center
07:39PM 42.1775 -85.5692 66° East 139 160 4,900  Level Chicago Center
07:40PM 42.1922 -85.5211 68° East 138 159 4,900  Level Chicago Center
07:41PM 42.2064 -85.4731 68° East 139 160 4,900  Level Chicago Center
07:42PM 42.2222 -85.4256 66° East 139 160 4,900  Level Chicago Center
07:44PM 42.2386 -85.3683 69° East 137 158 4,900  Level Chicago Center
07:45PM 42.2539 -85.3217 66° East 136 157 4,900  Level Chicago Center
07:46PM 42.2689 -85.2711 68° East 135 155 4,900  Level Chicago Center
07:47PM 42.2822 -85.2256 68° East 133 153 4,900  Level Chicago Center
07:48PM 42.2978 -85.1781 66° East 136 157 4,900  Level Chicago Center
07:49PM 42.3111 -85.1314 69° East 134 154 4,900  Level Chicago Center
07:50PM 42.3267 -85.0856 65° Northeast 135 155 4,900  Level Chicago Center
07:51PM 42.3400 -85.0381 69° East 135 155 4,900  Level Chicago Center
07:52PM 42.3578 -84.9806 67° East 137 158 4,900  Level Chicago Center
07:53PM 42.3728 -84.9317 67° East 140 161 4,900  Level Chicago Center
07:54PM 42.3861 -84.8836 69° East 138 159 4,900  Level Chicago Center
07:55PM 42.4008 -84.8375 67° East 136 157 4,900  Level Chicago Center
07:56PM 42.4153 -84.7897 68° East 136 157 4,900  Level Chicago Center
07:57PM 42.4328 -84.7314 68° East 139 160 4,900  Level Chicago Center
07:58PM 42.4475 -84.6844 67° East 137 158 4,900  Level Chicago Center
07:59PM 42.4611 -84.6369 69° East 136 157 4,900  Level Chicago Center
08:00PM 42.4747 -84.5903 68° East 134 154 4,900  Level Chicago Center
08:01PM 42.4897 -84.5419 67° East 137 158 4,900  Level Chicago Center
08:02PM 42.5031 -84.4964 68° East 133 153 4,900  Level Chicago Center
08:03PM 42.5200 -84.4394 68° East 135 155 4,900  Level Chicago Center
08:04PM 42.5342 -84.3922 68° East 136 157 4,900  Level Chicago Center
08:05PM 42.5494 -84.3444 67° East 137 158 4,900  Level Chicago Center
08:06PM 42.5653 -84.2850 70° East 136 157 4,900  Level Cleveland Center
08:07PM 42.5811 -84.2436 63° Northeast 135 155 4,900  Level Cleveland Center
08:08PM 42.5892 -84.1933 78° East 134 154 4,900  Level Cleveland Center
08:10PM 42.5950 -84.1372 82° East 132 152 4,900  Level Cleveland Center
08:11PM 42.6028 -84.0842 79° East 132 152 4,900  Level Cleveland Center
08:12PM 42.6064 -84.0361 84° East 129 148 4,900  Level Cleveland Center
08:13PM 42.6097 -83.9914 84° East 124 143 4,900  Level Cleveland Center
08:14PM 42.6111 -83.9433 88° East 124 143 4,900  Level Cleveland Center
08:15PM 42.6106 -83.8953 91° East 125 144 4,900  Level Cleveland Center
08:16PM 42.6139 -83.8475 85° East 124 143 4,900 -60 Level Cleveland Center
08:17PM 42.6153 -83.7997 88° East 124 143 4,800 -300 Descending Cleveland Center
08:18PM 42.6206 -83.7606 80° East 122 140 4,400 -480 Descending Cleveland Center
08:19PM 42.6197 -83.7125 91° East 128 147 3,900 -240 Descending Cleveland Center
08:20PM 42.6253 -83.6647 81° East 120 138 3,900  Level Cleveland Center
08:21PM 42.6264 -83.6253 88° East 114 131 3,900  Level Cleveland Center
08:22PM 42.6319 -83.5719 82° East 118 136 3,900  Level Cleveland Center
08:23PM 42.6311 -83.5239 91° East 118 136 3,900  Level Cleveland Center
08:24PM 42.6344 -83.4761 85° East 118 136 3,900  Level Cleveland Center
08:25PM 42.6353 -83.4422 88° East 119 137 3,900 -180 Level Cleveland Center
08:26PM 42.6325 -83.3856 94° East 115 132 3,600 -300 Descending Cleveland Center
08:27PM 42.6247 -83.3542 109° East 115 132 3,300 -420 Descending Cleveland Center
08:28PM 42.6156 -83.3086 105° East 113 130 2,900 -240 Descending Cleveland Center
08:29PM 42.6081 -83.2717 105° East 102 117 2,900  Level Cleveland Center
08:30PM 42.5986 -83.2319 108° East 105 121 2,900  Level Cleveland Center
08:31PM 42.5889 -83.1947 110° East 102 117 2,900  Level Cleveland Center
08:32PM 42.5667 -83.1711 142° Southeast 95 109 2,900  Level Cleveland Center
08:33PM 42.5461 -83.1478 140° Southeast 95 109 2,900  Level Cleveland Center
08:34PM 42.5278 -83.1303 145° Southeast 90 104 2,900 -60 Level Cleveland Center
08:35PM 42.5056 -83.1039 139° Southeast 97 112 2,800 -360 Descending Cleveland Center
08:36PM 42.4811 -83.0806 145° Southeast 96 110 2,200 -600 Descending Cleveland Center
08:37PM 42.4628 -83.0628 144° Southeast 98 113 1,700 -540 Descending Cleveland Center
08:38PM 42.4403 -83.0394 143° Southeast 86 99 1,100 -540 Descending Cleveland Center